Terminal Aerodrome Forecast
Issued by NWS

Home | Current Version | Previous Version | Text Only | Print | Product List | Glossary On
Versions: 1 2 3 4 5 6 7 8 9 10 11 12 13 14 15 16 17 18 19 20 21 22 23 24 25
000
FTUS46 KSEW 211356 AAA
TAFPAE
TAF AMD
KPAE 211356Z 2114/2212 31006KT 3SM BR OVC001
      TEMPO 2114/2116 1/2SM FG BKN001
     FM211600 34005KT P6SM BKN006 OVC030
     FM212200 30007KT P6SM SCT015 BKN040
     FM220300 21006KT P6SM SCT025 BKN050=

USA.gov is the U.S. government's official web portal to all federal, state and local government web resources and services.